Погода Осередокна неделю

Минская область, Белоруссия

25 - 31 мая
  • 25мая
    Сегодня
    +10°
    +26°
    Облачно с прояснениями
    ВремяПогодаТемператураВлажностьДавлениеВетер, м/сВероятность осадков
    00:00Небольшая облачность+17°C64 %759 мм4.2 м/с2 %
    03:00Ясно и безоблачно+14°C64 %759 мм4.1 м/с2 %
    06:00Облачно с прояснениями+13°C68 %759 мм3.7 м/с2 %
    09:00Облачно с прояснениями+19°C60 %759 мм4.1 м/с2 %
    12:00Облачно с прояснениями+23°C45 %759 мм4.7 м/с3 %
    15:00Облачно с прояснениями+25°C40 %758 мм5.1 м/с4 %
    18:00Облачно с прояснениями+24°C41 %758 мм4.1 м/с2 %
    21:00Облачно с прояснениями+20°C55 %758 мм2.8 м/с2 %
  • 26мая
    Воскресенье
    +11°
    +25°
    Облачно с прояснениями
    ВремяПогодаТемператураВлажностьДавлениеВетер, м/сВероятность осадков
    00:00Облачно с прояснениями+15°C59 %758 мм2.7 м/с2 %
    03:00Небольшая облачность+12°C66 %758 мм2.6 м/с2 %
    06:00Ясно и безоблачно+11°C71 %758 мм2.2 м/с2 %
    09:00Ясно и безоблачно+17°C61 %759 мм1.9 м/с2 %
    12:00Практически безоблачно+22°C36 %759 мм2.6 м/с2 %
    15:00Облачно с прояснениями+24°C36 %758 мм2.3 м/с2 %
    18:00Ясно и безоблачно+24°C38 %758 мм2.5 м/с2 %
    21:00Ясно и безоблачно+19°C65 %758 мм2.6 м/с2 %
  • 27мая
    Понедельник
    +13°
    +26°
    Небольшая облачность
    ВремяПогодаТемператураВлажностьДавлениеВетер, м/сВероятность осадков
    00:00Практически безоблачно+13°C73 %758 мм2.9 м/с2 %
    03:00Облачно с прояснениями+13°C81 %758 мм2.0 м/с2 %
    06:00Облачно с прояснениями+13°C79 %758 мм1.8 м/с2 %
    09:00Облачно с прояснениями+20°C60 %758 мм1.6 м/с2 %
    12:00Облачно с прояснениями+24°C41 %758 мм2.7 м/с2 %
    15:00Небольшая облачность+25°C39 %758 мм2.6 м/с2 %
    18:00Ясно и безоблачно+26°C39 %757 мм2.3 м/с3 %
    21:00Ясно и безоблачно+21°C61 %756 мм2.3 м/с2 %
  • 28мая
    Вторник
    +14°
    +26°
    Ясно и безоблачно
    ВремяПогодаТемператураВлажностьДавлениеВетер, м/сВероятность осадков
    00:00Ясно и безоблачно+16°C74 %756 мм2.4 м/с2 %
    03:00Ясно и безоблачно+15°C76 %756 мм2.4 м/с2 %
    06:00Ясно и безоблачно+14°C84 %756 мм2.5 м/с2 %
    09:00Ясно и безоблачно+20°C70 %756 мм2.7 м/с2 %
    12:00Ясно и безоблачно+25°C40 %755 мм3.8 м/с12 %
    15:00Ясно и безоблачно+26°C36 %755 мм3.9 м/с20 %
    18:00Ясно и безоблачно+26°C41 %753 мм2.9 м/с21 %
    21:00Практически безоблачно+22°C54 %753 мм3.6 м/с9 %
  • 29мая
    Среда
    +14°
    +27°
    Небольшая облачность
    ВремяПогодаТемператураВлажностьДавлениеВетер, м/сВероятность осадков
    00:00Ясно и безоблачно+18°C64 %753 мм4.2 м/с2 %
    03:00Облачно с прояснениями+17°C65 %753 мм3.4 м/с2 %
    06:00Ясно и безоблачно+15°C75 %752 мм2.7 м/с2 %
    09:00Ясно и безоблачно+19°C65 %752 мм3.8 м/с2 %
    12:00Ясно и безоблачно+25°C45 %752 мм4.2 м/с7 %
    15:00Небольшая облачность+25°C36 %751 мм3.7 м/с23 %
    18:00Ясно и безоблачно+26°C37 %750 мм2.2 м/с26 %
    21:00Практически безоблачно+21°C62 %749 мм2.4 м/с4 %
Мы используем cookies
Соглашаюсь